sensor_id;sensor_type;location;lat;lon;timestamp;P1;durP1;ratioP1;P2;durP2;ratioP2
42590;SDS011;28218;53.342;-6.216;2024-02-26T00:00:39;13.88;;;6.82;;
42590;SDS011;28218;53.342;-6.216;2024-02-26T00:03:07;15.90;;;7.88;;
42590;SDS011;28218;53.342;-6.216;2024-02-26T00:05:37;15.23;;;6.18;;
42590;SDS011;28218;53.342;-6.216;2024-02-26T00:10:35;12.73;;;6.00;;
42590;SDS011;28218;53.342;-6.216;2024-02-26T00:13:03;13.55;;;6.85;;
42590;SDS011;28218;53.342;-6.216;2024-02-26T00:15:32;15.40;;;6.63;;
42590;SDS011;28218;53.342;-6.216;2024-02-26T00:18:01;11.10;;;6.43;;
42590;SDS011;28218;53.342;-6.216;2024-02-26T00:20:30;19.77;;;6.43;;
42590;SDS011;28218;53.342;-6.216;2024-02-26T00:23:00;12.82;;;6.25;;
42590;SDS011;28218;53.342;-6.216;2024-02-26T00:25:28;13.68;;;6.53;;
42590;SDS011;28218;53.342;-6.216;2024-02-26T00:27:56;22.30;;;7.47;;
42590;SDS011;28218;53.342;-6.216;2024-02-26T00:30:25;15.07;;;7.40;;
42590;SDS011;28218;53.342;-6.216;2024-02-26T00:32:53;17.50;;;7.78;;
42590;SDS011;28218;53.342;-6.216;2024-02-26T00:35:21;14.40;;;6.80;;
42590;SDS011;28218;53.342;-6.216;2024-02-26T00:37:50;11.23;;;6.57;;
42590;SDS011;28218;53.342;-6.216;2024-02-26T00:40:19;12.77;;;6.75;;
42590;SDS011;28218;53.342;-6.216;2024-02-26T00:42:47;13.93;;;6.43;;
42590;SDS011;28218;53.342;-6.216;2024-02-26T00:45:16;13.45;;;6.93;;
42590;SDS011;28218;53.342;-6.216;2024-02-26T00:47:45;12.75;;;6.72;;
42590;SDS011;28218;53.342;-6.216;2024-02-26T00:50:14;15.57;;;6.40;;
42590;SDS011;28218;53.342;-6.216;2024-02-26T00:52:43;11.32;;;6.47;;
42590;SDS011;28218;53.342;-6.216;2024-02-26T00:55:11;17.90;;;7.40;;
42590;SDS011;28218;53.342;-6.216;2024-02-26T00:57:41;14.40;;;7.45;;
42590;SDS011;28218;53.342;-6.216;2024-02-26T01:00:09;11.18;;;7.07;;
42590;SDS011;28218;53.342;-6.216;2024-02-26T01:02:38;17.05;;;8.35;;
42590;SDS011;28218;53.342;-6.216;2024-02-26T01:05:08;19.52;;;7.82;;
42590;SDS011;28218;53.342;-6.216;2024-02-26T01:07:37;18.55;;;7.25;;
42590;SDS011;28218;53.342;-6.216;2024-02-26T01:10:06;20.95;;;8.38;;
42590;SDS011;28218;53.342;-6.216;2024-02-26T01:12:35;19.17;;;8.02;;
42590;SDS011;28218;53.342;-6.216;2024-02-26T01:15:06;16.65;;;7.70;;
42590;SDS011;28218;53.342;-6.216;2024-02-26T01:17:35;15.68;;;7.47;;
42590;SDS011;28218;53.342;-6.216;2024-02-26T01:20:06;12.38;;;6.70;;
42590;SDS011;28218;53.342;-6.216;2024-02-26T01:22:35;14.15;;;6.28;;
42590;SDS011;28218;53.342;-6.216;2024-02-26T01:25:04;12.75;;;6.85;;
42590;SDS011;28218;53.342;-6.216;2024-02-26T01:27:32;13.50;;;6.68;;
42590;SDS011;28218;53.342;-6.216;2024-02-26T01:30:01;14.10;;;7.43;;
42590;SDS011;28218;53.342;-6.216;2024-02-26T01:32:32;15.95;;;7.80;;
42590;SDS011;28218;53.342;-6.216;2024-02-26T01:35:03;13.40;;;7.60;;
42590;SDS011;28218;53.342;-6.216;2024-02-26T01:37:31;12.60;;;7.28;;
42590;SDS011;28218;53.342;-6.216;2024-02-26T01:40:00;15.95;;;7.22;;
42590;SDS011;28218;53.342;-6.216;2024-02-26T01:42:30;16.13;;;7.40;;
42590;SDS011;28218;53.342;-6.216;2024-02-26T01:44:59;17.85;;;6.82;;
42590;SDS011;28218;53.342;-6.216;2024-02-26T01:47:27;15.52;;;7.82;;
42590;SDS011;28218;53.342;-6.216;2024-02-26T01:49:58;13.50;;;7.40;;
42590;SDS011;28218;53.342;-6.216;2024-02-26T01:52:26;12.23;;;8.63;;
42590;SDS011;28218;53.342;-6.216;2024-02-26T01:54:55;15.02;;;6.97;;
42590;SDS011;28218;53.342;-6.216;2024-02-26T01:57:23;15.85;;;7.57;;
42590;SDS011;28218;53.342;-6.216;2024-02-26T01:59:52;17.23;;;7.30;;
42590;SDS011;28218;53.342;-6.216;2024-02-26T02:02:20;16.60;;;6.80;;
42590;SDS011;28218;53.342;-6.216;2024-02-26T02:04:48;12.27;;;6.68;;
42590;SDS011;28218;53.342;-6.216;2024-02-26T02:07:18;8.88;;;5.55;;
42590;SDS011;28218;53.342;-6.216;2024-02-26T02:09:47;9.95;;;5.30;;
42590;SDS011;28218;53.342;-6.216;2024-02-26T02:12:16;9.60;;;4.97;;
42590;SDS011;28218;53.342;-6.216;2024-02-26T02:14:44;9.55;;;5.90;;
42590;SDS011;28218;53.342;-6.216;2024-02-26T02:17:13;11.38;;;7.00;;
42590;SDS011;28218;53.342;-6.216;2024-02-26T02:19:41;9.98;;;5.22;;
42590;SDS011;28218;53.342;-6.216;2024-02-26T02:22:11;13.10;;;5.15;;
42590;SDS011;28218;53.342;-6.216;2024-02-26T02:24:39;7.22;;;4.25;;
42590;SDS011;28218;53.342;-6.216;2024-02-26T02:27:07;7.78;;;4.70;;
42590;SDS011;28218;53.342;-6.216;2024-02-26T02:29:36;9.15;;;5.93;;
42590;SDS011;28218;53.342;-6.216;2024-02-26T02:32:04;8.70;;;4.47;;
42590;SDS011;28218;53.342;-6.216;2024-02-26T02:34:33;7.68;;;4.38;;
42590;SDS011;28218;53.342;-6.216;2024-02-26T02:39:34;8.63;;;4.07;;
42590;SDS011;28218;53.342;-6.216;2024-02-26T02:42:02;8.98;;;4.80;;
42590;SDS011;28218;53.342;-6.216;2024-02-26T02:44:31;17.88;;;4.53;;
42590;SDS011;28218;53.342;-6.216;2024-02-26T02:46:59;10.65;;;5.13;;
42590;SDS011;28218;53.342;-6.216;2024-02-26T02:49:28;12.25;;;5.13;;
42590;SDS011;28218;53.342;-6.216;2024-02-26T02:51:56;10.52;;;5.30;;
42590;SDS011;28218;53.342;-6.216;2024-02-26T02:54:25;14.82;;;5.40;;
42590;SDS011;28218;53.342;-6.216;2024-02-26T02:56:54;9.52;;;4.80;;
42590;SDS011;28218;53.342;-6.216;2024-02-26T02:59:23;8.27;;;5.05;;
42590;SDS011;28218;53.342;-6.216;2024-02-26T03:01:51;11.32;;;5.50;;
42590;SDS011;28218;53.342;-6.216;2024-02-26T03:04:19;7.38;;;5.43;;
42590;SDS011;28218;53.342;-6.216;2024-02-26T03:06:48;9.18;;;5.60;;
42590;SDS011;28218;53.342;-6.216;2024-02-26T03:09:16;12.85;;;5.47;;
42590;SDS011;28218;53.342;-6.216;2024-02-26T03:11:45;10.40;;;6.45;;
42590;SDS011;28218;53.342;-6.216;2024-02-26T03:14:14;9.10;;;6.30;;
42590;SDS011;28218;53.342;-6.216;2024-02-26T03:16:44;10.02;;;5.97;;
42590;SDS011;28218;53.342;-6.216;2024-02-26T03:19:14;10.13;;;6.43;;
42590;SDS011;28218;53.342;-6.216;2024-02-26T03:21:43;15.43;;;6.22;;
42590;SDS011;28218;53.342;-6.216;2024-02-26T03:24:11;11.68;;;6.97;;
42590;SDS011;28218;53.342;-6.216;2024-02-26T03:26:39;9.52;;;6.78;;
42590;SDS011;28218;53.342;-6.216;2024-02-26T03:29:08;9.50;;;6.68;;
42590;SDS011;28218;53.342;-6.216;2024-02-26T03:31:38;10.10;;;6.30;;
42590;SDS011;28218;53.342;-6.216;2024-02-26T03:34:06;11.63;;;6.93;;
42590;SDS011;28218;53.342;-6.216;2024-02-26T03:36:35;11.45;;;6.28;;
42590;SDS011;28218;53.342;-6.216;2024-02-26T03:39:03;12.43;;;7.20;;
42590;SDS011;28218;53.342;-6.216;2024-02-26T03:41:34;13.90;;;7.57;;
42590;SDS011;28218;53.342;-6.216;2024-02-26T03:44:02;10.90;;;6.82;;
42590;SDS011;28218;53.342;-6.216;2024-02-26T03:46:31;10.10;;;5.75;;
42590;SDS011;28218;53.342;-6.216;2024-02-26T03:49:00;10.30;;;7.70;;
42590;SDS011;28218;53.342;-6.216;2024-02-26T03:51:29;9.23;;;6.78;;
42590;SDS011;28218;53.342;-6.216;2024-02-26T03:53:59;13.00;;;6.47;;
42590;SDS011;28218;53.342;-6.216;2024-02-26T03:56:28;11.68;;;6.70;;
42590;SDS011;28218;53.342;-6.216;2024-02-26T03:58:56;11.40;;;7.00;;
42590;SDS011;28218;53.342;-6.216;2024-02-26T04:01:26;7.15;;;5.80;;
42590;SDS011;28218;53.342;-6.216;2024-02-26T04:03:54;10.10;;;5.88;;
42590;SDS011;28218;53.342;-6.216;2024-02-26T04:06:24;15.80;;;6.50;;
42590;SDS011;28218;53.342;-6.216;2024-02-26T04:08:53;8.88;;;6.28;;
42590;SDS011;28218;53.342;-6.216;2024-02-26T04:11:21;10.45;;;7.07;;
42590;SDS011;28218;53.342;-6.216;2024-02-26T04:13:49;7.95;;;5.57;;
42590;SDS011;28218;53.342;-6.216;2024-02-26T04:16:18;7.95;;;6.00;;
42590;SDS011;28218;53.342;-6.216;2024-02-26T04:18:47;6.95;;;5.55;;
42590;SDS011;28218;53.342;-6.216;2024-02-26T04:21:15;8.32;;;5.25;;
42590;SDS011;28218;53.342;-6.216;2024-02-26T04:23:45;8.73;;;5.40;;
42590;SDS011;28218;53.342;-6.216;2024-02-26T04:28:43;6.88;;;4.88;;
42590;SDS011;28218;53.342;-6.216;2024-02-26T04:31:12;6.85;;;4.93;;
42590;SDS011;28218;53.342;-6.216;2024-02-26T04:33:40;13.27;;;5.38;;
42590;SDS011;28218;53.342;-6.216;2024-02-26T04:36:12;6.90;;;4.63;;
42590;SDS011;28218;53.342;-6.216;2024-02-26T04:38:41;6.93;;;4.60;;
42590;SDS011;28218;53.342;-6.216;2024-02-26T04:41:11;6.53;;;4.00;;
42590;SDS011;28218;53.342;-6.216;2024-02-26T04:43:39;6.63;;;4.68;;
42590;SDS011;28218;53.342;-6.216;2024-02-26T04:46:09;10.45;;;3.97;;
42590;SDS011;28218;53.342;-6.216;2024-02-26T04:48:37;7.05;;;4.30;;
42590;SDS011;28218;53.342;-6.216;2024-02-26T04:51:08;9.63;;;4.22;;
42590;SDS011;28218;53.342;-6.216;2024-02-26T04:53:36;5.15;;;4.18;;
42590;SDS011;28218;53.342;-6.216;2024-02-26T04:56:05;5.53;;;4.38;;
42590;SDS011;28218;53.342;-6.216;2024-02-26T04:58:35;7.05;;;4.03;;
42590;SDS011;28218;53.342;-6.216;2024-02-26T05:01:04;10.05;;;3.75;;
42590;SDS011;28218;53.342;-6.216;2024-02-26T05:03:32;7.47;;;3.97;;
42590;SDS011;28218;53.342;-6.216;2024-02-26T05:06:03;5.38;;;3.80;;
42590;SDS011;28218;53.342;-6.216;2024-02-26T05:08:32;6.18;;;3.40;;
42590;SDS011;28218;53.342;-6.216;2024-02-26T05:11:02;4.65;;;3.22;;
42590;SDS011;28218;53.342;-6.216;2024-02-26T05:13:31;5.72;;;3.35;;
42590;SDS011;28218;53.342;-6.216;2024-02-26T05:16:00;7.38;;;3.83;;
42590;SDS011;28218;53.342;-6.216;2024-02-26T05:18:28;4.75;;;3.30;;
42590;SDS011;28218;53.342;-6.216;2024-02-26T05:20:57;4.75;;;3.30;;
42590;SDS011;28218;53.342;-6.216;2024-02-26T05:23:25;8.20;;;2.90;;
42590;SDS011;28218;53.342;-6.216;2024-02-26T05:25:54;3.97;;;2.20;;
42590;SDS011;28218;53.342;-6.216;2024-02-26T05:28:22;2.72;;;2.42;;
42590;SDS011;28218;53.342;-6.216;2024-02-26T05:30:51;4.65;;;2.80;;
42590;SDS011;28218;53.342;-6.216;2024-02-26T05:33:20;6.22;;;2.95;;
42590;SDS011;28218;53.342;-6.216;2024-02-26T05:35:50;3.67;;;1.98;;
42590;SDS011;28218;53.342;-6.216;2024-02-26T05:38:18;6.68;;;2.83;;
42590;SDS011;28218;53.342;-6.216;2024-02-26T05:40:47;4.78;;;2.70;;
42590;SDS011;28218;53.342;-6.216;2024-02-26T05:43:15;4.63;;;2.22;;
42590;SDS011;28218;53.342;-6.216;2024-02-26T05:45:43;4.65;;;2.00;;
42590;SDS011;28218;53.342;-6.216;2024-02-26T05:48:11;2.22;;;1.90;;
42590;SDS011;28218;53.342;-6.216;2024-02-26T05:50:41;4.38;;;2.47;;
42590;SDS011;28218;53.342;-6.216;2024-02-26T05:53:10;3.30;;;2.00;;
42590;SDS011;28218;53.342;-6.216;2024-02-26T05:55:38;5.85;;;2.17;;
42590;SDS011;28218;53.342;-6.216;2024-02-26T05:58:06;7.10;;;2.13;;
42590;SDS011;28218;53.342;-6.216;2024-02-26T06:00:34;7.97;;;2.40;;
42590;SDS011;28218;53.342;-6.216;2024-02-26T06:03:03;10.40;;;2.13;;
42590;SDS011;28218;53.342;-6.216;2024-02-26T06:05:32;4.03;;;1.70;;
42590;SDS011;28218;53.342;-6.216;2024-02-26T06:08:01;2.30;;;1.50;;
42590;SDS011;28218;53.342;-6.216;2024-02-26T06:10:30;3.03;;;2.10;;
42590;SDS011;28218;53.342;-6.216;2024-02-26T06:12:58;2.85;;;1.80;;
42590;SDS011;28218;53.342;-6.216;2024-02-26T06:15:26;4.88;;;1.95;;
42590;SDS011;28218;53.342;-6.216;2024-02-26T06:17:54;4.72;;;2.13;;
42590;SDS011;28218;53.342;-6.216;2024-02-26T06:20:23;9.00;;;2.25;;
42590;SDS011;28218;53.342;-6.216;2024-02-26T06:22:51;6.60;;;2.10;;
42590;SDS011;28218;53.342;-6.216;2024-02-26T06:25:21;4.10;;;2.20;;
42590;SDS011;28218;53.342;-6.216;2024-02-26T06:27:49;4.22;;;1.63;;
42590;SDS011;28218;53.342;-6.216;2024-02-26T06:30:17;2.95;;;1.60;;
42590;SDS011;28218;53.342;-6.216;2024-02-26T06:32:46;3.05;;;1.50;;
42590;SDS011;28218;53.342;-6.216;2024-02-26T06:35:14;5.57;;;1.60;;
42590;SDS011;28218;53.342;-6.216;2024-02-26T06:37:42;3.10;;;1.60;;
42590;SDS011;28218;53.342;-6.216;2024-02-26T06:40:11;8.70;;;1.58;;
42590;SDS011;28218;53.342;-6.216;2024-02-26T06:42:40;2.00;;;1.40;;
42590;SDS011;28218;53.342;-6.216;2024-02-26T06:45:14;3.20;;;1.42;;
42590;SDS011;28218;53.342;-6.216;2024-02-26T06:47:42;5.30;;;1.98;;
42590;SDS011;28218;53.342;-6.216;2024-02-26T06:50:11;2.35;;;1.33;;
42590;SDS011;28218;53.342;-6.216;2024-02-26T06:52:40;5.80;;;1.40;;
42590;SDS011;28218;53.342;-6.216;2024-02-26T06:55:08;4.45;;;1.15;;
42590;SDS011;28218;53.342;-6.216;2024-02-26T06:57:36;5.78;;;2.08;;
42590;SDS011;28218;53.342;-6.216;2024-02-26T07:00:07;4.43;;;1.70;;
42590;SDS011;28218;53.342;-6.216;2024-02-26T07:02:41;4.10;;;1.45;;
42590;SDS011;28218;53.342;-6.216;2024-02-26T07:05:09;4.07;;;1.50;;
42590;SDS011;28218;53.342;-6.216;2024-02-26T07:07:37;3.80;;;1.42;;
42590;SDS011;28218;53.342;-6.216;2024-02-26T07:10:07;8.07;;;1.48;;
42590;SDS011;28218;53.342;-6.216;2024-02-26T07:12:35;7.53;;;1.73;;
42590;SDS011;28218;53.342;-6.216;2024-02-26T07:15:04;5.20;;;1.40;;
42590;SDS011;28218;53.342;-6.216;2024-02-26T07:17:35;9.25;;;1.45;;
42590;SDS011;28218;53.342;-6.216;2024-02-26T07:20:04;4.95;;;1.35;;
42590;SDS011;28218;53.342;-6.216;2024-02-26T07:22:36;3.80;;;1.08;;
42590;SDS011;28218;53.342;-6.216;2024-02-26T07:25:04;6.07;;;2.28;;
42590;SDS011;28218;53.342;-6.216;2024-02-26T07:27:35;6.65;;;1.45;;
42590;SDS011;28218;53.342;-6.216;2024-02-26T07:30:03;4.95;;;1.60;;
42590;SDS011;28218;53.342;-6.216;2024-02-26T07:32:34;4.05;;;1.60;;
42590;SDS011;28218;53.342;-6.216;2024-02-26T07:35:03;8.00;;;1.27;;
42590;SDS011;28218;53.342;-6.216;2024-02-26T07:37:32;7.22;;;2.22;;
42590;SDS011;28218;53.342;-6.216;2024-02-26T07:40:01;3.50;;;1.60;;
42590;SDS011;28218;53.342;-6.216;2024-02-26T07:42:29;9.13;;;1.58;;
42590;SDS011;28218;53.342;-6.216;2024-02-26T07:44:58;3.50;;;1.10;;
42590;SDS011;28218;53.342;-6.216;2024-02-26T07:47:26;4.25;;;1.48;;
42590;SDS011;28218;53.342;-6.216;2024-02-26T07:49:57;4.35;;;1.48;;
42590;SDS011;28218;53.342;-6.216;2024-02-26T07:52:26;8.48;;;3.05;;
42590;SDS011;28218;53.342;-6.216;2024-02-26T07:54:54;10.23;;;3.53;;
42590;SDS011;28218;53.342;-6.216;2024-02-26T07:57:22;7.35;;;2.63;;
42590;SDS011;28218;53.342;-6.216;2024-02-26T07:59:51;8.23;;;1.92;;
42590;SDS011;28218;53.342;-6.216;2024-02-26T08:02:19;8.50;;;1.95;;
42590;SDS011;28218;53.342;-6.216;2024-02-26T08:04:49;4.70;;;1.55;;
42590;SDS011;28218;53.342;-6.216;2024-02-26T08:07:18;7.80;;;2.35;;
42590;SDS011;28218;53.342;-6.216;2024-02-26T08:09:48;3.20;;;0.93;;
42590;SDS011;28218;53.342;-6.216;2024-02-26T08:12:16;8.48;;;2.72;;
42590;SDS011;28218;53.342;-6.216;2024-02-26T08:14:44;9.15;;;2.75;;
42590;SDS011;28218;53.342;-6.216;2024-02-26T08:17:12;4.93;;;1.42;;
42590;SDS011;28218;53.342;-6.216;2024-02-26T08:19:41;10.25;;;2.22;;
42590;SDS011;28218;53.342;-6.216;2024-02-26T08:22:09;8.38;;;1.83;;
42590;SDS011;28218;53.342;-6.216;2024-02-26T08:24:44;5.68;;;1.60;;
42590;SDS011;28218;53.342;-6.216;2024-02-26T08:27:12;7.07;;;1.67;;
42590;SDS011;28218;53.342;-6.216;2024-02-26T08:29:41;7.60;;;1.38;;
42590;SDS011;28218;53.342;-6.216;2024-02-26T08:32:09;3.90;;;1.45;;
42590;SDS011;28218;53.342;-6.216;2024-02-26T08:34:37;6.93;;;1.70;;
42590;SDS011;28218;53.342;-6.216;2024-02-26T08:37:06;4.63;;;1.80;;
42590;SDS011;28218;53.342;-6.216;2024-02-26T08:39:34;10.32;;;1.75;;
42590;SDS011;28218;53.342;-6.216;2024-02-26T08:42:04;10.02;;;1.67;;
42590;SDS011;28218;53.342;-6.216;2024-02-26T08:44:33;5.32;;;2.47;;
42590;SDS011;28218;53.342;-6.216;2024-02-26T08:47:01;7.45;;;2.22;;
42590;SDS011;28218;53.342;-6.216;2024-02-26T08:49:30;8.25;;;1.90;;
42590;SDS011;28218;53.342;-6.216;2024-02-26T08:51:58;5.70;;;1.52;;
42590;SDS011;28218;53.342;-6.216;2024-02-26T08:54:26;7.35;;;1.42;;
42590;SDS011;28218;53.342;-6.216;2024-02-26T08:56:54;8.40;;;1.35;;
42590;SDS011;28218;53.342;-6.216;2024-02-26T08:59:24;12.52;;;1.80;;
42590;SDS011;28218;53.342;-6.216;2024-02-26T09:01:52;6.97;;;1.10;;
42590;SDS011;28218;53.342;-6.216;2024-02-26T09:04:21;3.95;;;1.30;;
42590;SDS011;28218;53.342;-6.216;2024-02-26T09:06:49;10.70;;;1.60;;
42590;SDS011;28218;53.342;-6.216;2024-02-26T09:09:17;9.45;;;1.25;;
42590;SDS011;28218;53.342;-6.216;2024-02-26T09:11:46;8.32;;;1.75;;
42590;SDS011;28218;53.342;-6.216;2024-02-26T09:14:15;6.25;;;0.90;;
42590;SDS011;28218;53.342;-6.216;2024-02-26T09:16:45;11.40;;;1.38;;
42590;SDS011;28218;53.342;-6.216;2024-02-26T09:19:14;9.85;;;1.80;;
42590;SDS011;28218;53.342;-6.216;2024-02-26T09:21:43;23.48;;;8.27;;
42590;SDS011;28218;53.342;-6.216;2024-02-26T09:24:11;9.45;;;2.53;;
42590;SDS011;28218;53.342;-6.216;2024-02-26T09:26:40;11.73;;;3.53;;
42590;SDS011;28218;53.342;-6.216;2024-02-26T09:29:08;6.47;;;2.15;;
42590;SDS011;28218;53.342;-6.216;2024-02-26T09:31:36;6.65;;;1.63;;
42590;SDS011;28218;53.342;-6.216;2024-02-26T09:34:08;6.25;;;1.58;;
42590;SDS011;28218;53.342;-6.216;2024-02-26T09:36:36;6.32;;;0.73;;
42590;SDS011;28218;53.342;-6.216;2024-02-26T09:39:04;6.40;;;1.27;;
42590;SDS011;28218;53.342;-6.216;2024-02-26T09:41:34;7.55;;;1.20;;
42590;SDS011;28218;53.342;-6.216;2024-02-26T09:44:02;9.15;;;1.92;;
42590;SDS011;28218;53.342;-6.216;2024-02-26T09:46:33;8.43;;;1.20;;
42590;SDS011;28218;53.342;-6.216;2024-02-26T09:49:01;5.60;;;1.20;;
42590;SDS011;28218;53.342;-6.216;2024-02-26T09:51:31;5.50;;;1.27;;
42590;SDS011;28218;53.342;-6.216;2024-02-26T09:54:00;9.23;;;0.93;;
42590;SDS011;28218;53.342;-6.216;2024-02-26T09:56:32;10.07;;;1.55;;
42590;SDS011;28218;53.342;-6.216;2024-02-26T09:59:10;3.10;;;0.95;;
42590;SDS011;28218;53.342;-6.216;2024-02-26T10:01:40;2.95;;;1.00;;
42590;SDS011;28218;53.342;-6.216;2024-02-26T10:04:10;2.60;;;0.85;;
42590;SDS011;28218;53.342;-6.216;2024-02-26T10:06:40;2.60;;;1.10;;
42590;SDS011;28218;53.342;-6.216;2024-02-26T10:09:11;9.15;;;1.23;;
42590;SDS011;28218;53.342;-6.216;2024-02-26T10:11:39;5.53;;;0.80;;
42590;SDS011;28218;53.342;-6.216;2024-02-26T10:14:10;4.67;;;1.00;;
42590;SDS011;28218;53.342;-6.216;2024-02-26T10:16:38;4.20;;;1.45;;
42590;SDS011;28218;53.342;-6.216;2024-02-26T10:19:07;14.75;;;1.60;;
42590;SDS011;28218;53.342;-6.216;2024-02-26T10:21:36;5.38;;;1.05;;
42590;SDS011;28218;53.342;-6.216;2024-02-26T10:24:06;5.75;;;0.85;;
42590;SDS011;28218;53.342;-6.216;2024-02-26T10:26:45;8.13;;;1.05;;
42590;SDS011;28218;53.342;-6.216;2024-02-26T10:29:14;5.20;;;1.50;;
42590;SDS011;28218;53.342;-6.216;2024-02-26T10:31:42;9.73;;;0.90;;
42590;SDS011;28218;53.342;-6.216;2024-02-26T10:34:10;1.27;;;0.60;;
42590;SDS011;28218;53.342;-6.216;2024-02-26T10:36:39;6.53;;;1.15;;
42590;SDS011;28218;53.342;-6.216;2024-02-26T10:39:20;13.55;;;2.53;;
42590;SDS011;28218;53.342;-6.216;2024-02-26T10:41:49;2.47;;;0.70;;
42590;SDS011;28218;53.342;-6.216;2024-02-26T10:44:17;8.90;;;1.90;;
42590;SDS011;28218;53.342;-6.216;2024-02-26T10:46:46;8.25;;;1.13;;
42590;SDS011;28218;53.342;-6.216;2024-02-26T10:49:17;5.43;;;0.70;;
42590;SDS011;28218;53.342;-6.216;2024-02-26T10:51:50;4.30;;;1.10;;
42590;SDS011;28218;53.342;-6.216;2024-02-26T10:54:25;9.90;;;1.55;;
42590;SDS011;28218;53.342;-6.216;2024-02-26T10:56:55;5.88;;;0.77;;
42590;SDS011;28218;53.342;-6.216;2024-02-26T10:59:26;6.63;;;0.90;;
42590;SDS011;28218;53.342;-6.216;2024-02-26T11:01:54;5.53;;;0.73;;
42590;SDS011;28218;53.342;-6.216;2024-02-26T11:04:23;10.50;;;1.23;;
42590;SDS011;28218;53.342;-6.216;2024-02-26T11:06:54;6.85;;;0.90;;
42590;SDS011;28218;53.342;-6.216;2024-02-26T11:09:26;2.78;;;0.68;;
42590;SDS011;28218;53.342;-6.216;2024-02-26T11:11:56;3.60;;;0.60;;
42590;SDS011;28218;53.342;-6.216;2024-02-26T11:14:26;3.65;;;1.27;;
42590;SDS011;28218;53.342;-6.216;2024-02-26T11:19:26;3.67;;;0.68;;
42590;SDS011;28218;53.342;-6.216;2024-02-26T11:21:55;3.33;;;1.13;;
42590;SDS011;28218;53.342;-6.216;2024-02-26T11:24:30;8.38;;;1.20;;
42590;SDS011;28218;53.342;-6.216;2024-02-26T11:27:01;4.18;;;1.13;;
42590;SDS011;28218;53.342;-6.216;2024-02-26T11:29:33;8.20;;;0.75;;
42590;SDS011;28218;53.342;-6.216;2024-02-26T11:32:06;9.75;;;1.30;;
42590;SDS011;28218;53.342;-6.216;2024-02-26T11:34:34;8.60;;;1.55;;
42590;SDS011;28218;53.342;-6.216;2024-02-26T11:37:09;5.00;;;1.08;;
42590;SDS011;28218;53.342;-6.216;2024-02-26T11:39:40;10.70;;;1.20;;
42590;SDS011;28218;53.342;-6.216;2024-02-26T11:42:09;8.30;;;2.00;;
42590;SDS011;28218;53.342;-6.216;2024-02-26T11:44:37;3.72;;;0.60;;
42590;SDS011;28218;53.342;-6.216;2024-02-26T11:47:09;3.13;;;0.55;;
42590;SDS011;28218;53.342;-6.216;2024-02-26T11:49:38;2.63;;;1.10;;
42590;SDS011;28218;53.342;-6.216;2024-02-26T11:52:08;7.88;;;1.45;;
42590;SDS011;28218;53.342;-6.216;2024-02-26T11:54:43;8.45;;;0.80;;
42590;SDS011;28218;53.342;-6.216;2024-02-26T11:57:22;15.35;;;1.70;;
42590;SDS011;28218;53.342;-6.216;2024-02-26T11:59:51;12.57;;;1.60;;
42590;SDS011;28218;53.342;-6.216;2024-02-26T12:05:14;5.88;;;0.93;;
42590;SDS011;28218;53.342;-6.216;2024-02-26T12:07:44;8.77;;;1.70;;
42590;SDS011;28218;53.342;-6.216;2024-02-26T12:13:05;4.70;;;0.80;;
42590;SDS011;28218;53.342;-6.216;2024-02-26T12:15:36;2.05;;;0.50;;
42590;SDS011;28218;53.342;-6.216;2024-02-26T12:18:05;7.05;;;1.20;;
42590;SDS011;28218;53.342;-6.216;2024-02-26T12:20:36;2.08;;;0.60;;
42590;SDS011;28218;53.342;-6.216;2024-02-26T12:23:05;6.47;;;1.10;;
42590;SDS011;28218;53.342;-6.216;2024-02-26T12:25:34;2.83;;;0.80;;
42590;SDS011;28218;53.342;-6.216;2024-02-26T12:28:03;3.92;;;0.65;;
42590;SDS011;28218;53.342;-6.216;2024-02-26T12:30:31;6.95;;;1.67;;
42590;SDS011;28218;53.342;-6.216;2024-02-26T12:33:00;2.67;;;0.52;;
42590;SDS011;28218;53.342;-6.216;2024-02-26T12:35:29;4.05;;;0.60;;
42590;SDS011;28218;53.342;-6.216;2024-02-26T12:37:59;9.30;;;1.40;;
42590;SDS011;28218;53.342;-6.216;2024-02-26T12:40:27;4.05;;;0.60;;
42590;SDS011;28218;53.342;-6.216;2024-02-26T12:42:57;12.00;;;1.77;;
42590;SDS011;28218;53.342;-6.216;2024-02-26T12:45:26;5.70;;;0.77;;
42590;SDS011;28218;53.342;-6.216;2024-02-26T12:47:55;1.75;;;0.60;;
42590;SDS011;28218;53.342;-6.216;2024-02-26T12:50:23;4.35;;;1.65;;
42590;SDS011;28218;53.342;-6.216;2024-02-26T12:52:52;5.32;;;0.63;;
42590;SDS011;28218;53.342;-6.216;2024-02-26T12:55:21;6.53;;;0.65;;
42590;SDS011;28218;53.342;-6.216;2024-02-26T12:57:49;13.02;;;1.10;;
42590;SDS011;28218;53.342;-6.216;2024-02-26T13:00:21;7.13;;;1.20;;
42590;SDS011;28218;53.342;-6.216;2024-02-26T13:02:52;4.18;;;0.73;;
42590;SDS011;28218;53.342;-6.216;2024-02-26T13:05:22;5.07;;;1.00;;
42590;SDS011;28218;53.342;-6.216;2024-02-26T13:07:51;4.97;;;0.45;;
42590;SDS011;28218;53.342;-6.216;2024-02-26T13:10:20;5.47;;;0.90;;
42590;SDS011;28218;53.342;-6.216;2024-02-26T13:12:49;3.83;;;0.88;;
42590;SDS011;28218;53.342;-6.216;2024-02-26T13:15:18;2.92;;;1.33;;
42590;SDS011;28218;53.342;-6.216;2024-02-26T13:17:49;7.65;;;1.10;;
42590;SDS011;28218;53.342;-6.216;2024-02-26T13:20:25;6.22;;;1.45;;
42590;SDS011;28218;53.342;-6.216;2024-02-26T13:23:01;5.30;;;0.82;;
42590;SDS011;28218;53.342;-6.216;2024-02-26T13:25:31;15.15;;;1.23;;
42590;SDS011;28218;53.342;-6.216;2024-02-26T13:28:06;4.70;;;0.90;;
42590;SDS011;28218;53.342;-6.216;2024-02-26T13:30:36;4.05;;;1.20;;
42590;SDS011;28218;53.342;-6.216;2024-02-26T13:33:09;5.03;;;1.02;;
42590;SDS011;28218;53.342;-6.216;2024-02-26T13:35:39;7.88;;;0.90;;
42590;SDS011;28218;53.342;-6.216;2024-02-26T13:38:07;3.17;;;0.65;;
42590;SDS011;28218;53.342;-6.216;2024-02-26T13:40:34;10.80;;;1.33;;
42590;SDS011;28218;53.342;-6.216;2024-02-26T13:43:03;2.28;;;0.80;;
42590;SDS011;28218;53.342;-6.216;2024-02-26T13:45:33;2.33;;;0.73;;
42590;SDS011;28218;53.342;-6.216;2024-02-26T13:48:03;2.27;;;1.00;;
42590;SDS011;28218;53.342;-6.216;2024-02-26T13:50:33;7.20;;;1.67;;
42590;SDS011;28218;53.342;-6.216;2024-02-26T13:53:02;4.72;;;1.55;;
42590;SDS011;28218;53.342;-6.216;2024-02-26T13:55:30;5.05;;;0.90;;
42590;SDS011;28218;53.342;-6.216;2024-02-26T13:57:59;3.78;;;0.98;;
42590;SDS011;28218;53.342;-6.216;2024-02-26T14:00:28;6.93;;;0.77;;
42590;SDS011;28218;53.342;-6.216;2024-02-26T14:03:00;7.68;;;1.23;;
42590;SDS011;28218;53.342;-6.216;2024-02-26T14:05:29;9.82;;;1.30;;
42590;SDS011;28218;53.342;-6.216;2024-02-26T14:07:59;5.40;;;1.02;;
42590;SDS011;28218;53.342;-6.216;2024-02-26T14:10:28;5.47;;;0.95;;
42590;SDS011;28218;53.342;-6.216;2024-02-26T14:12:57;2.75;;;0.70;;
42590;SDS011;28218;53.342;-6.216;2024-02-26T14:15:25;2.50;;;0.70;;
42590;SDS011;28218;53.342;-6.216;2024-02-26T14:17:53;10.55;;;1.42;;
42590;SDS011;28218;53.342;-6.216;2024-02-26T14:20:23;9.38;;;0.90;;
42590;SDS011;28218;53.342;-6.216;2024-02-26T14:22:53;6.07;;;1.15;;
42590;SDS011;28218;53.342;-6.216;2024-02-26T14:25:23;6.00;;;0.63;;
42590;SDS011;28218;53.342;-6.216;2024-02-26T14:27:55;5.40;;;0.70;;
42590;SDS011;28218;53.342;-6.216;2024-02-26T14:30:25;3.70;;;0.63;;
42590;SDS011;28218;53.342;-6.216;2024-02-26T14:32:53;6.15;;;0.73;;
42590;SDS011;28218;53.342;-6.216;2024-02-26T14:35:22;5.30;;;0.90;;
42590;SDS011;28218;53.342;-6.216;2024-02-26T14:37:53;9.90;;;3.53;;
42590;SDS011;28218;53.342;-6.216;2024-02-26T14:40:28;10.75;;;1.50;;
42590;SDS011;28218;53.342;-6.216;2024-02-26T14:42:56;6.03;;;1.13;;
42590;SDS011;28218;53.342;-6.216;2024-02-26T14:45:26;9.75;;;1.73;;
42590;SDS011;28218;53.342;-6.216;2024-02-26T14:47:55;9.93;;;2.15;;
42590;SDS011;28218;53.342;-6.216;2024-02-26T14:50:24;1.33;;;0.70;;
42590;SDS011;28218;53.342;-6.216;2024-02-26T14:52:52;10.43;;;1.70;;
42590;SDS011;28218;53.342;-6.216;2024-02-26T14:55:20;7.30;;;1.30;;
42590;SDS011;28218;53.342;-6.216;2024-02-26T14:57:50;9.40;;;1.08;;